Time;durP1;ratioP1;P1;durP2;ratioP2;P2;SDS_P1;SDS_P2;PMS_P1;PMS_P2;Temp;Humidity;BMP_temperature;BMP_pressure;BME280_temperature;BME280_humidity;BME280_pressure;Samples;Min_cycle;Max_cycle;Signal;HPM_P1;HPM_P2
2023/12/05 07:47:42;;;;;;;29.50;16.83;;;1.00;97.60;;;;;;6296948;22;20025;-70
2023/12/05 07:50:28;;;;;;;30.75;18.20;;;1.00;97.60;;;;;;6300436;22;20049;-72
2023/12/05 07:53:15;;;;;;;28.13;16.33;;;1.10;97.70;;;;;;6275602;22;20007;-63
2023/12/05 07:56:01;;;;;;;32.78;18.38;;;1.20;97.80;;;;;;6298708;22;20063;-65
2023/12/05 07:58:47;;;;;;;33.55;18.92;;;1.20;97.80;;;;;;6300895;22;20019;-65
2023/12/05 08:01:33;;;;;;;34.00;17.25;;;1.20;97.80;;;;;;6300862;22;20033;-65
2023/12/05 08:04:19;;;;;;;31.02;18.02;;;1.30;97.80;;;;;;6299577;22;20086;-65
2023/12/05 08:07:05;;;;;;;28.45;16.95;;;1.30;97.80;;;;;;6300975;22;20072;-68
2023/12/05 08:09:51;;;;;;;30.08;17.60;;;1.30;97.70;;;;;;6300446;22;20013;-68
2023/12/05 08:12:36;;;;;;;29.30;17.55;;;1.30;97.70;;;;;;6300156;22;20043;-68
2023/12/05 08:15:22;;;;;;;33.95;18.92;;;1.40;97.90;;;;;;6276407;22;20030;-68
2023/12/05 08:18:08;;;;;;;31.55;18.25;;;1.40;97.70;;;;;;6300086;22;20442;-67
2023/12/05 08:20:54;;;;;;;29.95;17.20;;;1.40;97.70;;;;;;6297911;22;20045;-72
2023/12/05 08:23:40;;;;;;;28.88;16.52;;;1.40;97.70;;;;;;6298517;22;20004;-71
2023/12/05 08:26:26;;;;;;;34.47;19.67;;;1.40;97.70;;;;;;6300376;22;20379;-68
2023/12/05 08:29:12;;;;;;;32.22;17.77;;;1.40;97.60;;;;;;6298256;22;20068;-68
2023/12/05 08:31:58;;;;;;;31.30;19.20;;;1.50;97.70;;;;;;6277738;22;20015;-68
2023/12/05 08:34:44;;;;;;;35.22;18.92;;;1.50;97.70;;;;;;6299925;22;20009;-68
2023/12/05 08:37:31;;;;;;;27.55;17.80;;;1.50;97.60;;;;;;6298225;22;20119;-63
2023/12/05 08:40:17;;;;;;;31.48;17.52;;;1.60;97.60;;;;;;6296313;22;20015;-64
2023/12/05 08:43:03;;;;;;;31.85;18.23;;;1.60;97.60;;;;;;6297044;22;20011;-64
2023/12/05 08:45:49;;;;;;;33.05;17.88;;;1.60;97.60;;;;;;6297467;22;20106;-64
2023/12/05 08:48:35;;;;;;;32.58;19.05;;;1.60;97.60;;;;;;6296474;22;20015;-64
2023/12/05 08:51:21;;;;;;;31.45;18.80;;;1.70;97.60;;;;;;6298626;22;20011;-64
2023/12/05 08:54:07;;;;;;;31.63;17.85;;;1.70;97.60;;;;;;6299672;22;20007;-64
2023/12/05 08:56:53;;;;;;;32.92;19.58;;;1.70;97.60;;;;;;6298164;22;20027;-64
2023/12/05 08:59:39;;;;;;;33.63;18.17;;;1.80;97.60;;;;;;6298755;22;20007;-64
2023/12/05 09:02:25;;;;;;;30.98;16.35;;;1.80;97.60;;;;;;6297494;22;20042;-64
2023/12/05 09:05:11;;;;;;;30.50;16.65;;;1.80;97.60;;;;;;6297731;22;20018;-64
2023/12/05 09:07:57;;;;;;;30.77;17.55;;;1.80;97.50;;;;;;6295937;22;20015;-65
2023/12/05 09:10:42;;;;;;;30.05;18.13;;;1.90;97.50;;;;;;6297689;22;20004;-64
2023/12/05 09:13:28;;;;;;;31.15;17.58;;;1.90;97.50;;;;;;6299755;22;20470;-64
2023/12/05 09:16:14;;;;;;;30.60;17.67;;;1.90;97.50;;;;;;6275701;22;20039;-65
2023/12/05 09:19:01;;;;;;;31.27;18.77;;;1.90;97.40;;;;;;6300940;22;20017;-65
2023/12/05 09:21:47;;;;;;;29.02;16.38;;;2.00;97.50;;;;;;6299009;22;20015;-65
2023/12/05 09:24:33;;;;;;;28.25;16.55;;;2.00;97.50;;;;;;6298999;22;20098;-65
2023/12/05 09:27:19;;;;;;;28.45;17.67;;;2.00;97.50;;;;;;6294584;22;20065;-65
2023/12/05 09:30:05;;;;;;;28.48;17.25;;;2.00;97.50;;;;;;6296358;22;20085;-65
2023/12/05 09:32:53;;;;;;;38.05;16.38;;;2.10;97.50;;;;;;6300600;22;20020;-66
2023/12/05 09:35:38;;;;;;;29.90;16.50;;;2.20;97.60;;;;;;6300077;22;20462;-65
2023/12/05 09:38:24;;;;;;;30.05;17.95;;;2.20;97.50;;;;;;6299904;22;20015;-65
2023/12/05 09:41:12;;;;;;;27.85;17.25;;;2.20;97.50;;;;;;6299522;22;20014;-65
2023/12/05 09:44:01;;;;;;;28.52;17.40;;;2.30;97.50;;;;;;6300056;22;20348;-66
2023/12/05 09:46:52;;;;;;;27.45;16.17;;;2.30;97.40;;;;;;6298751;22;20463;-65
2023/12/05 09:49:40;;;;;;;30.90;17.13;;;2.30;97.40;;;;;;6274384;22;20047;-65
2023/12/05 09:52:28;;;;;;;32.22;17.98;;;2.30;97.40;;;;;;6298587;22;20524;-65
2023/12/05 09:55:14;;;;;;;25.58;15.27;;;2.40;97.30;;;;;;6299952;22;20097;-70
2023/12/05 09:58:01;;;;;;;27.95;17.42;;;2.40;97.40;;;;;;6300037;22;20051;-69
2023/12/05 10:00:51;;;;;;;26.40;16.35;;;2.40;97.20;;;;;;6300463;22;20527;-70
2023/12/05 10:03:40;;;;;;;31.08;17.83;;;2.40;97.30;;;;;;6277361;22;20011;-70
2023/12/05 10:06:26;;;;;;;24.30;16.23;;;2.40;97.30;;;;;;6298666;22;20090;-70
2023/12/05 10:09:14;;;;;;;28.10;17.60;;;2.50;97.30;;;;;;6279021;22;20086;-71
2023/12/05 10:12:01;;;;;;;29.92;18.42;;;2.50;97.30;;;;;;6279570;22;20479;-71
2023/12/05 10:14:47;;;;;;;28.67;17.60;;;2.50;97.20;;;;;;6301821;22;20013;-71
2023/12/05 10:17:34;;;;;;;31.00;15.88;;;2.60;97.40;;;;;;6300425;22;20378;-70
2023/12/05 10:20:20;;;;;;;30.35;17.33;;;2.70;97.40;;;;;;6301568;22;20401;-70
2023/12/05 10:23:07;;;;;;;27.92;15.85;;;2.70;97.30;;;;;;6299269;22;20018;-70
2023/12/05 10:25:53;;;;;;;25.80;15.80;;;2.70;97.20;;;;;;6300920;22;20046;-71
2023/12/05 10:28:55;;;;;;;28.45;17.42;;;2.80;97.20;;;;;;6302331;22;20035;-71
2023/12/05 10:31:42;;;;;;;28.02;16.42;;;2.80;97.10;;;;;;6299849;22;20010;-70
2023/12/05 10:34:28;;;;;;;26.80;16.95;;;2.80;97.00;;;;;;6302395;22;20437;-70
2023/12/05 10:37:14;;;;;;;23.80;14.57;;;2.80;97.00;;;;;;6301567;22;20019;-70
2023/12/05 10:40:00;;;;;;;28.77;16.27;;;2.90;97.10;;;;;;6301606;22;20007;-70
2023/12/05 10:42:46;;;;;;;23.63;14.55;;;2.90;97.00;;;;;;6298514;22;20007;-70
2023/12/05 10:45:32;;;;;;;26.02;15.27;;;2.90;97.00;;;;;;6298773;22;20423;-70
2023/12/05 10:48:19;;;;;;;28.17;16.27;;;3.00;97.10;;;;;;6299827;22;20021;-70
2023/12/05 10:51:05;;;;;;;27.48;16.48;;;3.10;97.10;;;;;;6279498;22;20060;-70
2023/12/05 10:53:53;;;;;;;29.98;17.98;;;3.10;97.00;;;;;;6301512;22;20056;-70
2023/12/05 10:56:54;;;;;;;26.05;15.32;;;3.10;96.90;;;;;;6301169;22;20374;-70
2023/12/05 10:59:40;;;;;;;25.23;15.77;;;3.10;96.90;;;;;;6299719;22;20074;-69
2023/12/05 11:02:26;;;;;;;24.05;15.65;;;3.20;96.90;;;;;;6301278;22;20031;-70
2023/12/05 11:05:14;;;;;;;24.00;14.88;;;3.10;96.80;;;;;;6300902;22;20011;-70
2023/12/05 11:08:01;;;;;;;26.45;16.75;;;3.20;96.90;;;;;;6300891;22;20052;-70
2023/12/05 11:10:48;;;;;;;25.35;15.43;;;3.20;96.80;;;;;;6280428;22;20371;-70
2023/12/05 11:13:35;;;;;;;26.45;14.73;;;3.20;96.80;;;;;;6301557;22;20011;-70
2023/12/05 11:16:26;;;;;;;26.33;16.08;;;3.30;96.90;;;;;;6297566;22;20420;-70
2023/12/05 11:19:36;;;;;;;25.15;16.00;;;3.40;96.90;;;;;;6301995;22;20339;-70
2023/12/05 11:23:10;;;;;;;22.70;14.73;;;3.50;96.80;;;;;;6301132;22;20489;-70
2023/12/05 11:26:34;;;;;;;24.58;14.48;;;3.50;96.80;;;;;;6229814;22;20008;-70
2023/12/05 11:29:54;;;;;;;27.75;15.88;;;3.60;96.70;;;;;;6279621;22;20007;-70
2023/12/05 11:33:01;;;;;;;23.65;14.57;;;3.60;96.60;;;;;;6298949;22;20090;-70
2023/12/05 11:36:13;;;;;;;24.58;14.88;;;3.60;96.60;;;;;;6298130;22;20011;-68
2023/12/05 11:39:00;;;;;;;24.83;15.35;;;3.70;96.60;;;;;;6300059;22;20015;-68
2023/12/05 11:42:09;;;;;;;23.38;14.90;;;3.70;96.40;;;;;;6300900;22;20015;-68
2023/12/05 11:44:55;;;;;;;22.67;14.48;;;3.70;96.50;;;;;;6300559;22;20018;-69
2023/12/05 11:47:41;;;;;;;23.23;14.65;;;3.60;96.40;;;;;;6300638;22;20019;-70
2023/12/05 11:50:38;;;;;;;23.85;15.50;;;3.70;96.40;;;;;;6297880;22;20007;-69
2023/12/05 11:53:23;;;;;;;24.48;13.85;;;3.80;96.50;;;;;;6300043;22;20007;-69
2023/12/05 11:56:19;;;;;;;21.63;13.65;;;3.80;96.50;;;;;;6301221;22;20019;-70
2023/12/05 11:59:14;;;;;;;23.33;14.60;;;3.90;96.50;;;;;;6300089;22;20018;-70
2023/12/05 12:02:00;;;;;;;22.48;14.88;;;3.90;96.40;;;;;;6300352;22;20011;-69
2023/12/05 12:04:46;;;;;;;24.33;15.75;;;4.00;96.50;;;;;;6300463;22;20035;-69
2023/12/05 12:07:41;;;;;;;23.77;13.05;;;3.90;96.40;;;;;;6300140;22;20018;-72
2023/12/05 12:10:27;;;;;;;20.33;14.57;;;4.00;96.50;;;;;;6299395;22;20560;-70
2023/12/05 12:13:13;;;;;;;20.95;13.07;;;4.10;96.50;;;;;;6277381;22;20038;-68
2023/12/05 12:15:59;;;;;;;23.67;15.40;;;4.00;96.40;;;;;;6301654;22;20458;-68
2023/12/05 12:18:45;;;;;;;25.02;16.02;;;4.10;96.50;;;;;;6277142;22;20022;-68
2023/12/05 12:21:31;;;;;;;23.27;14.02;;;4.10;96.40;;;;;;6278973;22;20009;-69
2023/12/05 12:24:22;;;;;;;20.83;13.43;;;4.10;96.30;;;;;;6300224;22;20007;-68
2023/12/05 12:27:09;;;;;;;21.10;13.93;;;4.10;96.40;;;;;;6300704;22;20082;-68
2023/12/05 12:29:57;;;;;;;21.70;14.20;;;4.10;96.40;;;;;;6301074;22;20482;-68
2023/12/05 12:32:57;;;;;;;21.15;14.00;;;4.10;96.40;;;;;;6297138;22;20011;-68
2023/12/05 12:35:43;;;;;;;26.58;15.70;;;4.10;96.30;;;;;;6301042;22;20011;-70
2023/12/05 12:38:29;;;;;;;25.45;14.43;;;4.10;96.40;;;;;;6300300;22;20106;-70
2023/12/05 12:41:15;;;;;;;21.52;14.13;;;4.10;96.50;;;;;;6298974;22;20014;-68
2023/12/05 12:44:05;;;;;;;22.35;14.80;;;4.10;96.50;;;;;;6301060;22;20212;-68
2023/12/05 12:46:51;;;;;;;23.48;14.90;;;4.10;96.50;;;;;;6301733;22;20008;-68
2023/12/05 12:49:37;;;;;;;20.90;14.05;;;4.20;96.50;;;;;;6299611;22;20046;-68
2023/12/05 12:52:23;;;;;;;22.25;14.60;;;4.10;96.40;;;;;;6300244;22;20010;-67
2023/12/05 12:55:10;;;;;;;22.83;14.35;;;4.10;96.40;;;;;;6300318;22;20015;-67
2023/12/05 12:57:56;;;;;;;23.17;14.88;;;4.20;96.40;;;;;;6276022;22;20015;-67
2023/12/05 13:00:42;;;;;;;20.05;13.50;;;4.20;96.40;;;;;;6298240;22;20011;-72
2023/12/05 13:03:28;;;;;;;26.50;15.40;;;4.10;96.40;;;;;;6298195;22;20115;-69
2023/12/05 13:06:15;;;;;;;25.40;16.23;;;4.20;96.50;;;;;;6296984;22;20092;-69
2023/12/05 13:09:06;;;;;;;26.13;16.00;;;4.20;96.40;;;;;;6298015;22;20086;-69
2023/12/05 13:11:53;;;;;;;21.42;13.52;;;4.10;96.40;;;;;;6298249;22;20108;-69
2023/12/05 13:14:40;;;;;;;25.23;15.43;;;4.10;96.40;;;;;;6298966;22;20011;-68
2023/12/05 13:17:26;;;;;;;22.92;13.98;;;4.10;96.40;;;;;;6299412;22;20019;-68
2023/12/05 13:20:14;;;;;;;23.00;14.70;;;4.10;96.50;;;;;;6300792;22;20411;-70
2023/12/05 13:23:01;;;;;;;23.90;14.88;;;4.00;96.50;;;;;;6300497;22;20007;-68
2023/12/05 13:25:47;;;;;;;25.77;15.20;;;4.00;96.40;;;;;;6300499;22;20014;-68
2023/12/05 13:28:34;;;;;;;27.30;15.88;;;4.00;96.50;;;;;;6299165;22;20120;-68
2023/12/05 13:31:20;;;;;;;25.27;15.57;;;3.90;96.50;;;;;;6300043;22;20014;-68
2023/12/05 13:34:06;;;;;;;23.67;15.23;;;3.90;96.60;;;;;;6300134;22;20022;-70
2023/12/05 13:36:52;;;;;;;26.02;15.88;;;3.80;96.50;;;;;;6298264;22;20015;-70
2023/12/05 13:39:38;;;;;;;25.52;15.90;;;3.80;96.60;;;;;;6300327;22;20007;-71
2023/12/05 13:42:24;;;;;;;26.88;15.55;;;3.70;96.50;;;;;;6298328;22;20021;-71
2023/12/05 13:45:10;;;;;;;26.10;15.65;;;3.70;96.60;;;;;;6298033;22;20011;-71
2023/12/05 13:47:57;;;;;;;29.52;16.10;;;3.70;96.70;;;;;;6278508;22;20023;-70
2023/12/05 13:50:43;;;;;;;21.90;14.55;;;3.70;96.70;;;;;;6300922;22;20481;-71
2023/12/05 13:53:29;;;;;;;25.13;15.40;;;3.70;96.70;;;;;;6302117;22;20064;-70
2023/12/05 13:56:15;;;;;;;22.23;15.07;;;3.70;96.70;;;;;;6301415;22;20938;-71
2023/12/05 13:59:01;;;;;;;26.77;16.92;;;3.70;96.70;;;;;;6299925;22;20425;-71
2023/12/05 14:01:47;;;;;;;24.05;15.40;;;3.60;96.70;;;;;;6297356;22;20064;-68
2023/12/05 14:04:33;;;;;;;25.83;16.48;;;3.60;96.80;;;;;;6301388;22;20003;-68
2023/12/05 14:07:19;;;;;;;23.92;15.27;;;3.60;96.80;;;;;;6301748;22;20381;-68
2023/12/05 14:10:06;;;;;;;25.15;15.43;;;3.60;96.90;;;;;;6301416;22;20010;-68
2023/12/05 14:12:52;;;;;;;23.80;14.57;;;3.50;96.90;;;;;;6303136;22;20009;-68
2023/12/05 14:15:38;;;;;;;23.80;15.18;;;3.50;96.90;;;;;;6300987;22;20004;-68
2023/12/05 14:18:25;;;;;;;25.73;16.67;;;3.50;97.00;;;;;;6301251;22;20015;-68
2023/12/05 14:21:11;;;;;;;22.98;15.25;;;3.50;97.00;;;;;;6301465;22;20017;-68
2023/12/05 14:23:56;;;;;;;29.50;15.48;;;3.40;97.10;;;;;;6299472;22;20011;-68
2023/12/05 14:26:42;;;;;;;29.73;17.08;;;3.40;97.10;;;;;;6278862;22;20011;-68
2023/12/05 14:29:28;;;;;;;28.52;16.88;;;3.30;97.10;;;;;;6302000;22;20366;-70
2023/12/05 14:32:14;;;;;;;29.23;17.50;;;3.30;97.20;;;;;;6280234;22;20065;-70
2023/12/05 14:35:01;;;;;;;31.27;18.05;;;3.20;97.20;;;;;;6299801;22;20049;-70
2023/12/05 14:37:47;;;;;;;28.88;17.45;;;3.20;97.30;;;;;;6297789;22;20072;-71
2023/12/05 14:40:33;;;;;;;27.85;19.13;;;3.20;97.40;;;;;;6301169;22;20007;-70
2023/12/05 14:43:20;;;;;;;50.92;18.98;;;3.20;97.50;;;;;;6301870;22;20041;-70
2023/12/05 14:46:07;;;;;;;26.77;16.95;;;3.10;97.40;;;;;;6300014;22;20371;-71
2023/12/05 14:48:53;;;;;;;28.27;17.55;;;3.10;97.60;;;;;;6278143;22;20026;-70
2023/12/05 14:51:39;;;;;;;29.75;17.05;;;3.10;97.40;;;;;;6299908;22;20037;-70
2023/12/05 14:54:25;;;;;;;26.30;15.90;;;3.00;97.50;;;;;;6301037;22;20253;-71
2023/12/05 14:57:11;;;;;;;28.48;15.80;;;3.00;97.50;;;;;;6302717;22;20015;-69
2023/12/05 14:59:57;;;;;;;28.52;18.23;;;3.00;97.80;;;;;;6302474;22;20488;-67
2023/12/05 15:02:43;;;;;;;26.10;16.75;;;3.00;97.60;;;;;;6302710;22;20086;-67
2023/12/05 15:05:29;;;;;;;27.88;16.35;;;3.00;97.60;;;;;;6301890;22;20013;-67
2023/12/05 15:08:15;;;;;;;35.92;18.52;;;3.00;97.60;;;;;;6301363;22;20100;-67
2023/12/05 15:11:01;;;;;;;31.40;17.83;;;2.90;97.60;;;;;;6298342;22;20003;-67
2023/12/05 15:13:47;;;;;;;28.33;17.55;;;3.00;97.70;;;;;;6278682;22;20022;-67
2023/12/05 15:16:33;;;;;;;28.33;17.80;;;3.00;97.70;;;;;;6302303;22;20015;-71
2023/12/05 15:19:19;;;;;;;32.05;19.55;;;3.00;97.70;;;;;;6302349;22;20013;-70
2023/12/05 15:22:05;;;;;;;26.02;15.48;;;2.90;97.70;;;;;;6303360;22;19999;-70
2023/12/05 15:24:51;;;;;;;29.92;18.02;;;3.00;97.80;;;;;;6302649;22;20015;-71
2023/12/05 15:27:37;;;;;;;29.15;18.63;;;3.00;97.80;;;;;;6302714;22;20152;-71
2023/12/05 15:30:23;;;;;;;31.45;20.00;;;2.90;97.80;;;;;;6301077;22;20003;-70
2023/12/05 15:33:09;;;;;;;33.83;19.70;;;2.90;97.90;;;;;;6301129;22;20003;-71
2023/12/05 15:35:54;;;;;;;29.70;18.50;;;2.80;98.00;;;;;;6296683;22;20369;-70
2023/12/05 15:38:43;;;;;;;28.33;18.30;;;2.90;98.00;;;;;;6300101;22;20019;-70
2023/12/05 15:41:29;;;;;;;29.25;18.42;;;2.90;98.00;;;;;;6298920;22;20011;-70
2023/12/05 15:44:15;;;;;;;32.28;19.73;;;2.90;98.10;;;;;;6300191;22;20007;-70
2023/12/05 15:47:01;;;;;;;35.70;22.05;;;2.80;98.10;;;;;;6276608;22;20377;-70
2023/12/05 15:49:47;;;;;;;34.13;20.17;;;2.80;98.20;;;;;;6276428;22;20015;-70
2023/12/05 15:52:33;;;;;;;31.73;19.02;;;2.80;98.20;;;;;;6300925;22;20011;-70
2023/12/05 15:55:20;;;;;;;29.67;18.75;;;2.90;98.30;;;;;;6299054;22;20092;-70
2023/12/05 15:58:06;;;;;;;30.10;19.58;;;2.90;98.30;;;;;;6300741;22;20073;-69
2023/12/05 16:00:52;;;;;;;35.05;19.15;;;2.80;98.30;;;;;;6297924;22;20011;-70
2023/12/05 16:03:38;;;;;;;28.88;18.95;;;2.80;98.40;;;;;;6273235;22;20007;-69
2023/12/05 16:06:24;;;;;;;33.45;20.05;;;2.80;98.40;;;;;;6279000;22;20007;-69
2023/12/05 16:09:12;;;;;;;34.08;20.25;;;2.80;98.50;;;;;;6274809;22;20091;-69
2023/12/05 16:11:58;;;;;;;32.22;18.58;;;2.80;98.60;;;;;;6300494;22;20459;-67
2023/12/05 16:14:44;;;;;;;33.00;19.92;;;2.80;98.70;;;;;;6301704;22;20011;-67
2023/12/05 16:17:30;;;;;;;34.65;21.02;;;2.80;98.70;;;;;;6301326;22;20090;-67
2023/12/05 16:20:16;;;;;;;33.45;20.05;;;2.80;98.70;;;;;;6301609;22;20065;-67
2023/12/05 16:23:02;;;;;;;31.65;18.77;;;2.70;98.70;;;;;;6297521;22;20126;-70
2023/12/05 16:25:48;;;;;;;30.50;19.52;;;2.80;98.90;;;;;;6297812;22;20148;-69
2023/12/05 16:28:34;;;;;;;33.55;20.77;;;2.80;98.90;;;;;;6299845;22;20523;-70
2023/12/05 16:31:20;;;;;;;36.00;21.02;;;2.70;98.90;;;;;;6296670;22;20135;-70
2023/12/05 16:34:07;;;;;;;34.95;21.55;;;2.80;99.00;;;;;;6300899;22;20011;-70
2023/12/05 16:36:53;;;;;;;32.50;19.67;;;2.70;99.00;;;;;;6299228;22;20258;-71
2023/12/05 16:39:43;;;;;;;34.22;20.38;;;2.70;99.10;;;;;;6297742;22;20014;-69
2023/12/05 16:42:28;;;;;;;34.13;20.80;;;2.70;99.10;;;;;;6278032;22;20015;-68
2023/12/05 16:45:17;;;;;;;33.88;21.52;;;2.70;99.20;;;;;;6301363;22;20007;-74
2023/12/05 16:48:03;;;;;;;35.72;21.10;;;2.70;99.20;;;;;;6299108;22;20755;-67
2023/12/05 16:50:52;;;;;;;31.00;17.98;;;2.70;99.10;;;;;;6299621;22;20105;-70
2023/12/05 16:53:38;;;;;;;31.27;20.52;;;2.70;99.10;;;;;;6296696;22;20084;-70
2023/12/05 16:56:24;;;;;;;32.50;20.67;;;2.60;99.10;;;;;;6300379;22;20003;-67
2023/12/05 16:59:10;;;;;;;34.28;21.35;;;2.60;99.20;;;;;;6297990;22;20007;-75
2023/12/05 17:01:56;;;;;;;36.35;20.92;;;2.70;99.30;;;;;;6298413;22;20095;-68
2023/12/05 17:04:42;;;;;;;32.10;21.15;;;2.70;99.40;;;;;;6298839;22;20022;-69
2023/12/05 17:07:28;;;;;;;34.65;20.50;;;2.70;99.40;;;;;;6296356;22;20012;-70
2023/12/05 17:10:14;;;;;;;31.75;21.63;;;2.70;99.50;;;;;;6299258;22;20014;-69
2023/12/05 17:13:00;;;;;;;33.22;20.13;;;2.70;99.50;;;;;;6298744;22;20010;-69
2023/12/05 17:15:46;;;;;;;36.70;21.30;;;2.70;99.50;;;;;;6297475;22;20004;-71
2023/12/05 17:18:32;;;;;;;35.85;22.05;;;2.70;99.50;;;;;;6276667;22;20019;-72
2023/12/05 17:21:18;;;;;;;36.40;22.90;;;2.70;99.50;;;;;;6300790;22;20003;-71
2023/12/05 17:24:04;;;;;;;37.20;23.17;;;2.60;99.50;;;;;;6298004;22;20397;-70
2023/12/05 17:26:50;;;;;;;35.50;22.23;;;2.60;99.50;;;;;;6300166;22;20008;-70
2023/12/05 17:29:36;;;;;;;37.42;22.77;;;2.60;99.50;;;;;;6301835;22;20011;-70
2023/12/05 17:32:25;;;;;;;38.60;23.52;;;2.60;99.60;;;;;;6301210;22;20068;-70
2023/12/05 17:35:12;;;;;;;35.55;21.63;;;2.70;99.80;;;;;;6299807;22;20428;-71
2023/12/05 17:37:58;;;;;;;39.08;24.13;;;2.70;99.60;;;;;;6297102;22;20512;-67
2023/12/05 17:40:44;;;;;;;37.45;24.13;;;2.60;99.50;;;;;;6298468;22;20390;-67
2023/12/05 17:43:29;;;;;;;39.75;25.38;;;2.60;99.50;;;;;;6300868;22;20030;-67
2023/12/05 17:46:15;;;;;;;36.08;23.20;;;2.60;99.50;;;;;;6300968;22;20007;-67
2023/12/05 17:49:02;;;;;;;41.13;23.45;;;2.60;99.60;;;;;;6298621;22;20077;-71
2023/12/05 17:51:47;;;;;;;44.38;25.13;;;2.60;99.60;;;;;;6300221;22;20015;-71
2023/12/05 17:54:33;;;;;;;39.75;24.63;;;2.60;99.60;;;;;;6300229;22;20086;-71
2023/12/05 17:57:21;;;;;;;39.30;24.23;;;2.60;99.60;;;;;;6299628;22;20102;-72
2023/12/05 18:00:08;;;;;;;39.53;23.90;;;2.50;99.60;;;;;;6300671;22;20011;-72
2023/12/05 18:02:54;;;;;;;45.55;25.60;;;2.50;99.80;;;;;;6298515;22;20073;-71
2023/12/05 18:05:40;;;;;;;45.33;24.55;;;2.60;99.60;;;;;;6298637;22;20400;-71
2023/12/05 18:08:26;;;;;;;41.83;25.58;;;2.50;99.60;;;;;;6300366;22;20007;-72
2023/12/05 18:11:12;;;;;;;41.78;25.48;;;2.50;99.60;;;;;;6299957;22;20484;-72
2023/12/05 18:13:58;;;;;;;41.80;26.25;;;2.50;99.60;;;;;;6300182;22;20011;-71
2023/12/05 18:16:44;;;;;;;37.90;24.30;;;2.50;99.60;;;;;;6277383;22;20092;-67
2023/12/05 18:19:32;;;;;;;46.65;25.75;;;2.50;99.60;;;;;;6299487;22;20035;-72
2023/12/05 18:22:19;;;;;;;38.83;23.80;;;2.50;99.70;;;;;;6299739;22;20014;-71
2023/12/05 18:25:06;;;;;;;42.45;23.70;;;2.60;99.70;;;;;;6298685;22;20015;-73
2023/12/05 18:27:52;;;;;;;42.88;24.85;;;2.50;99.70;;;;;;6300620;22;20381;-73
2023/12/05 18:30:39;;;;;;;44.60;26.35;;;2.50;99.80;;;;;;6277486;22;20077;-72
2023/12/05 18:33:25;;;;;;;43.85;24.02;;;2.50;99.80;;;;;;6301140;22;20011;-71
2023/12/05 18:36:11;;;;;;;43.85;25.20;;;2.60;99.80;;;;;;6278476;22;20096;-72
2023/12/05 18:38:57;;;;;;;41.80;25.48;;;2.60;99.80;;;;;;6300561;22;20026;-72
2023/12/05 18:41:43;;;;;;;40.03;23.40;;;2.50;99.80;;;;;;6298882;22;20011;-72
2023/12/05 18:44:29;;;;;;;42.75;26.15;;;2.60;99.90;;;;;;6277660;22;20050;-67
2023/12/05 18:47:15;;;;;;;38.88;24.38;;;2.60;99.90;;;;;;6300374;22;20007;-72
2023/12/05 18:50:01;;;;;;;43.40;26.20;;;2.60;99.90;;;;;;6300417;22;20070;-72
2023/12/05 18:52:48;;;;;;;42.67;24.95;;;2.60;99.90;;;;;;6299670;22;20015;-73
2023/12/05 18:55:34;;;;;;;41.25;25.33;;;2.60;99.90;;;;;;6300507;22;20038;-72
2023/12/05 18:58:20;;;;;;;40.50;26.65;;;2.70;99.90;;;;;;6299645;22;20505;-72
2023/12/05 19:01:06;;;;;;;40.15;22.88;;;2.60;99.90;;;;;;6299057;22;20014;-73
2023/12/05 19:03:52;;;;;;;40.70;24.90;;;2.70;99.90;;;;;;6301616;22;20011;-65
2023/12/05 19:06:38;;;;;;;42.35;26.25;;;2.60;99.90;;;;;;6297668;22;20014;-66
2023/12/05 19:09:24;;;;;;;40.17;24.10;;;2.60;99.90;;;;;;6298314;22;20421;-66
2023/12/05 19:12:10;;;;;;;41.53;24.52;;;2.60;99.90;;;;;;6276778;22;20590;-67
2023/12/05 19:14:56;;;;;;;42.97;26.63;;;2.70;99.90;;;;;;6300626;22;20034;-71
2023/12/05 19:17:42;;;;;;;42.75;26.40;;;2.70;99.90;;;;;;6300286;22;20015;-72
2023/12/05 19:20:30;;;;;;;40.05;25.45;;;2.60;99.80;;;;;;6300221;22;20035;-73
2023/12/05 19:23:16;;;;;;;42.67;25.02;;;2.70;99.90;;;;;;6276951;22;20521;-72
2023/12/05 19:26:03;;;;;;;43.45;24.13;;;2.60;99.80;;;;;;6299263;22;20018;-73
2023/12/05 19:28:50;;;;;;;46.15;27.33;;;2.70;99.90;;;;;;6298151;22;20011;-72
2023/12/05 19:31:36;;;;;;;43.78;26.77;;;2.60;99.80;;;;;;6300592;22;20090;-66
2023/12/05 19:34:22;;;;;;;44.03;26.17;;;2.70;99.90;;;;;;6298336;22;20086;-67
2023/12/05 19:37:08;;;;;;;45.97;28.02;;;2.70;99.90;;;;;;6299695;22;20043;-67
2023/12/05 19:39:54;;;;;;;39.75;24.38;;;2.70;99.90;;;;;;6298534;22;20362;-65
2023/12/05 19:42:42;;;;;;;39.65;25.42;;;2.60;99.80;;;;;;6299494;22;20112;-66
2023/12/05 19:45:28;;;;;;;46.65;26.23;;;2.70;99.90;;;;;;6298727;22;20462;-66
2023/12/05 19:48:14;;;;;;;47.33;26.35;;;2.60;99.90;;;;;;6297715;22;20430;-66
2023/12/05 19:51:00;;;;;;;44.53;25.98;;;2.70;99.90;;;;;;6298005;22;20042;-65
2023/12/05 19:53:45;;;;;;;48.92;25.50;;;2.60;99.80;;;;;;6298712;22;20014;-67
2023/12/05 19:56:31;;;;;;;42.63;26.88;;;2.60;99.80;;;;;;6299924;22;20106;-66
2023/12/05 19:59:17;;;;;;;44.85;26.15;;;2.60;99.90;;;;;;6298896;22;20584;-72
2023/12/05 20:02:03;;;;;;;41.45;24.98;;;2.60;99.90;;;;;;6298848;22;20363;-71
2023/12/05 20:04:50;;;;;;;40.88;25.95;;;2.60;99.90;;;;;;6299262;22;20007;-72
2023/12/05 20:07:36;;;;;;;46.90;27.02;;;2.60;99.90;;;;;;6297523;22;20100;-72
2023/12/05 20:10:22;;;;;;;47.00;25.45;;;2.60;99.90;;;;;;6299427;22;20343;-72
2023/12/05 20:13:08;;;;;;;46.80;26.27;;;2.60;99.90;;;;;;6299207;22;20029;-72
2023/12/05 20:15:54;;;;;;;41.35;24.65;;;2.60;99.90;;;;;;6297350;22;20003;-72
2023/12/05 20:18:40;;;;;;;45.58;27.60;;;2.70;99.90;;;;;;6274798;22;20486;-72
2023/12/05 20:21:26;;;;;;;48.25;28.00;;;2.70;99.90;;;;;;6299250;22;20014;-72
2023/12/05 20:24:12;;;;;;;46.72;26.33;;;2.60;99.90;;;;;;6299247;22;20011;-72
2023/12/05 20:26:58;;;;;;;44.10;26.70;;;2.60;99.90;;;;;;6298838;22;20061;-73
2023/12/05 20:29:44;;;;;;;47.58;26.88;;;2.60;99.90;;;;;;6297343;22;20474;-72
2023/12/05 20:32:30;;;;;;;43.92;26.52;;;2.70;99.90;;;;;;6298453;22;20014;-72
2023/12/05 20:35:16;;;;;;;42.45;25.73;;;2.70;99.90;;;;;;6299209;22;20029;-72
2023/12/05 20:38:02;;;;;;;45.25;26.67;;;2.70;99.90;;;;;;6299880;22;20466;-72
2023/12/05 20:40:48;;;;;;;43.75;25.55;;;2.70;99.90;;;;;;6299789;22;20021;-66
2023/12/05 20:43:34;;;;;;;42.70;25.50;;;2.70;99.90;;;;;;6299660;22;20015;-66
2023/12/05 20:46:20;;;;;;;45.05;26.83;;;2.70;99.90;;;;;;6298365;22;20058;-66
2023/12/05 20:49:07;;;;;;;41.28;25.10;;;2.70;99.90;;;;;;6297033;22;20118;-66
2023/12/05 20:51:53;;;;;;;46.10;26.00;;;2.70;99.90;;;;;;6275863;22;20069;-66
2023/12/05 20:54:39;;;;;;;46.53;28.05;;;2.70;99.90;;;;;;6300485;22;20011;-66
2023/12/05 20:57:25;;;;;;;44.58;26.50;;;2.70;99.80;;;;;;6297973;22;20023;-66
2023/12/05 21:00:11;;;;;;;42.35;25.83;;;2.60;99.80;;;;;;6298947;22;20007;-65
2023/12/05 21:02:57;;;;;;;45.33;25.52;;;2.60;99.90;;;;;;6297371;22;20478;-68
2023/12/05 21:05:43;;;;;;;42.75;25.40;;;2.60;99.90;;;;;;6298739;22;20030;-69
2023/12/05 21:08:29;;;;;;;44.40;25.17;;;2.70;99.90;;;;;;6275999;22;20018;-69
2023/12/05 21:11:15;;;;;;;43.75;25.77;;;2.70;99.90;;;;;;6277113;22;20409;-77
2023/12/05 21:14:01;;;;;;;45.28;27.15;;;2.70;99.90;;;;;;6300580;22;20369;-77
2023/12/05 21:16:47;;;;;;;45.75;26.48;;;2.80;99.90;;;;;;6296565;22;20099;-75
2023/12/05 21:19:33;;;;;;;40.30;24.25;;;2.70;99.90;;;;;;6275449;22;20152;-75
2023/12/05 21:22:19;;;;;;;43.55;25.92;;;2.70;99.90;;;;;;6276004;22;20011;-74
2023/12/05 21:25:05;;;;;;;42.08;25.95;;;2.70;99.90;;;;;;6277559;22;20011;-78
2023/12/05 21:27:51;;;;;;;40.63;25.38;;;2.80;99.90;;;;;;6278600;22;20009;-82
2023/12/05 21:30:37;;;;;;;41.90;26.58;;;2.80;99.90;;;;;;6298284;22;20015;-81
2023/12/05 21:33:23;;;;;;;43.60;26.00;;;2.80;99.80;;;;;;6298441;22;20086;-78
2023/12/05 21:36:18;;;;;;;44.08;25.60;;;2.80;99.80;;;;;;6299947;22;20011;-81
2023/12/05 21:39:04;;;;;;;44.15;25.67;;;2.80;99.80;;;;;;6300230;22;20027;-82
2023/12/05 21:41:50;;;;;;;42.00;26.15;;;2.80;99.70;;;;;;6276724;22;20026;-80
2023/12/05 21:44:40;;;;;;;47.88;27.27;;;2.80;99.70;;;;;;6298609;22;20443;-83
2023/12/05 21:47:26;;;;;;;44.22;26.40;;;2.80;99.70;;;;;;6279671;22;20042;-82
2023/12/05 21:50:12;;;;;;;45.47;26.05;;;2.80;99.70;;;;;;6277666;22;20003;-81
2023/12/05 21:52:58;;;;;;;41.42;25.88;;;2.90;99.80;;;;;;6300608;22;20015;-77
2023/12/05 21:55:44;;;;;;;42.85;25.67;;;2.80;99.70;;;;;;6277343;22;20346;-77
2023/12/05 21:58:30;;;;;;;43.00;25.95;;;2.80;99.70;;;;;;6298518;22;20022;-77
2023/12/05 22:01:16;;;;;;;42.85;27.52;;;2.90;99.80;;;;;;6298890;22;20099;-76
2023/12/05 22:04:02;;;;;;;45.50;26.90;;;2.90;99.80;;;;;;6299004;22;20007;-76